sensor_id;sensor_type;location;lat;lon;timestamp;P1;durP1;ratioP1;P2;durP2;ratioP2
18789;SDS011;9523;42.650;23.386;2024-02-15T00:00:16;9.60;;;6.87;;
18789;SDS011;9523;42.650;23.386;2024-02-15T00:02:45;10.57;;;6.87;;
18789;SDS011;9523;42.650;23.386;2024-02-15T00:05:12;9.33;;;6.87;;
18789;SDS011;9523;42.650;23.386;2024-02-15T00:07:41;8.03;;;6.20;;
18789;SDS011;9523;42.650;23.386;2024-02-15T00:10:09;8.20;;;6.10;;
18789;SDS011;9523;42.650;23.386;2024-02-15T00:12:36;8.70;;;6.53;;
18789;SDS011;9523;42.650;23.386;2024-02-15T00:15:04;10.07;;;7.47;;
18789;SDS011;9523;42.650;23.386;2024-02-15T00:17:31;8.03;;;5.27;;
18789;SDS011;9523;42.650;23.386;2024-02-15T00:20:01;14.60;;;7.87;;
18789;SDS011;9523;42.650;23.386;2024-02-15T00:22:34;6.33;;;5.17;;
18789;SDS011;9523;42.650;23.386;2024-02-15T00:25:01;9.27;;;6.07;;
18789;SDS011;9523;42.650;23.386;2024-02-15T00:27:30;12.00;;;6.47;;
18789;SDS011;9523;42.650;23.386;2024-02-15T00:30:00;8.73;;;5.70;;
18789;SDS011;9523;42.650;23.386;2024-02-15T00:32:27;10.30;;;6.40;;
18789;SDS011;9523;42.650;23.386;2024-02-15T00:34:54;9.33;;;6.63;;
18789;SDS011;9523;42.650;23.386;2024-02-15T00:37:22;12.40;;;7.60;;
18789;SDS011;9523;42.650;23.386;2024-02-15T00:39:49;9.83;;;6.20;;
18789;SDS011;9523;42.650;23.386;2024-02-15T00:42:16;8.80;;;6.10;;
18789;SDS011;9523;42.650;23.386;2024-02-15T00:44:44;11.43;;;6.73;;
18789;SDS011;9523;42.650;23.386;2024-02-15T00:47:11;14.00;;;7.47;;
18789;SDS011;9523;42.650;23.386;2024-02-15T00:49:38;11.03;;;6.23;;
18789;SDS011;9523;42.650;23.386;2024-02-15T00:52:05;10.23;;;7.50;;
18789;SDS011;9523;42.650;23.386;2024-02-15T00:54:34;9.83;;;6.50;;
18789;SDS011;9523;42.650;23.386;2024-02-15T00:57:01;10.17;;;6.40;;
18789;SDS011;9523;42.650;23.386;2024-02-15T00:59:28;10.40;;;5.67;;
18789;SDS011;9523;42.650;23.386;2024-02-15T01:01:55;12.90;;;6.57;;
18789;SDS011;9523;42.650;23.386;2024-02-15T01:04:22;9.03;;;6.73;;
18789;SDS011;9523;42.650;23.386;2024-02-15T01:06:49;8.83;;;5.20;;
18789;SDS011;9523;42.650;23.386;2024-02-15T01:09:16;8.40;;;6.07;;
18789;SDS011;9523;42.650;23.386;2024-02-15T01:11:45;7.80;;;4.87;;
18789;SDS011;9523;42.650;23.386;2024-02-15T01:14:12;12.63;;;7.10;;
18789;SDS011;9523;42.650;23.386;2024-02-15T01:16:40;9.90;;;6.63;;
18789;SDS011;9523;42.650;23.386;2024-02-15T01:19:08;10.57;;;6.50;;
18789;SDS011;9523;42.650;23.386;2024-02-15T01:21:35;11.93;;;7.10;;
18789;SDS011;9523;42.650;23.386;2024-02-15T01:24:03;11.07;;;6.70;;
18789;SDS011;9523;42.650;23.386;2024-02-15T01:26:31;11.63;;;6.93;;
18789;SDS011;9523;42.650;23.386;2024-02-15T01:29:00;11.47;;;6.27;;
18789;SDS011;9523;42.650;23.386;2024-02-15T01:31:28;9.60;;;6.40;;
18789;SDS011;9523;42.650;23.386;2024-02-15T01:33:55;10.27;;;5.87;;
18789;SDS011;9523;42.650;23.386;2024-02-15T01:36:22;9.73;;;7.03;;
18789;SDS011;9523;42.650;23.386;2024-02-15T01:38:50;6.87;;;5.30;;
18789;SDS011;9523;42.650;23.386;2024-02-15T01:41:17;9.87;;;6.70;;
18789;SDS011;9523;42.650;23.386;2024-02-15T01:43:44;10.47;;;6.37;;
18789;SDS011;9523;42.650;23.386;2024-02-15T01:46:12;8.67;;;6.67;;
18789;SDS011;9523;42.650;23.386;2024-02-15T01:48:41;9.47;;;6.70;;
18789;SDS011;9523;42.650;23.386;2024-02-15T01:51:09;9.57;;;6.53;;
18789;SDS011;9523;42.650;23.386;2024-02-15T01:53:38;10.50;;;6.40;;
18789;SDS011;9523;42.650;23.386;2024-02-15T01:56:07;8.37;;;4.70;;
18789;SDS011;9523;42.650;23.386;2024-02-15T01:58:34;6.73;;;5.03;;
18789;SDS011;9523;42.650;23.386;2024-02-15T02:01:01;10.17;;;6.77;;
18789;SDS011;9523;42.650;23.386;2024-02-15T02:03:30;10.97;;;6.97;;
18789;SDS011;9523;42.650;23.386;2024-02-15T02:05:57;9.03;;;6.60;;
18789;SDS011;9523;42.650;23.386;2024-02-15T02:08:25;8.03;;;5.20;;
18789;SDS011;9523;42.650;23.386;2024-02-15T02:10:52;8.87;;;6.23;;
18789;SDS011;9523;42.650;23.386;2024-02-15T02:13:19;9.57;;;6.73;;
18789;SDS011;9523;42.650;23.386;2024-02-15T02:15:46;8.87;;;6.80;;
18789;SDS011;9523;42.650;23.386;2024-02-15T02:18:13;10.23;;;6.30;;
18789;SDS011;9523;42.650;23.386;2024-02-15T02:20:42;11.20;;;6.90;;
18789;SDS011;9523;42.650;23.386;2024-02-15T02:23:13;9.93;;;7.03;;
18789;SDS011;9523;42.650;23.386;2024-02-15T02:25:42;10.53;;;7.47;;
18789;SDS011;9523;42.650;23.386;2024-02-15T02:28:14;12.57;;;7.43;;
18789;SDS011;9523;42.650;23.386;2024-02-15T02:30:42;11.57;;;6.60;;
18789;SDS011;9523;42.650;23.386;2024-02-15T02:33:11;12.53;;;6.80;;
18789;SDS011;9523;42.650;23.386;2024-02-15T02:35:42;11.97;;;7.30;;
18789;SDS011;9523;42.650;23.386;2024-02-15T02:38:09;9.90;;;6.67;;
18789;SDS011;9523;42.650;23.386;2024-02-15T02:40:36;9.13;;;6.63;;
18789;SDS011;9523;42.650;23.386;2024-02-15T02:43:05;9.57;;;6.40;;
18789;SDS011;9523;42.650;23.386;2024-02-15T02:45:32;12.60;;;7.80;;
18789;SDS011;9523;42.650;23.386;2024-02-15T02:47:59;12.03;;;6.87;;
18789;SDS011;9523;42.650;23.386;2024-02-15T02:50:26;13.67;;;7.30;;
18789;SDS011;9523;42.650;23.386;2024-02-15T02:52:53;11.07;;;6.43;;
18789;SDS011;9523;42.650;23.386;2024-02-15T02:55:20;11.77;;;7.50;;
18789;SDS011;9523;42.650;23.386;2024-02-15T02:57:48;12.43;;;7.00;;
18789;SDS011;9523;42.650;23.386;2024-02-15T03:00:18;10.53;;;6.63;;
18789;SDS011;9523;42.650;23.386;2024-02-15T03:02:45;11.10;;;7.20;;
18789;SDS011;9523;42.650;23.386;2024-02-15T03:05:12;12.27;;;7.83;;
18789;SDS011;9523;42.650;23.386;2024-02-15T03:07:40;11.53;;;7.47;;
18789;SDS011;9523;42.650;23.386;2024-02-15T03:10:08;12.73;;;6.97;;
18789;SDS011;9523;42.650;23.386;2024-02-15T03:12:39;12.13;;;7.47;;
18789;SDS011;9523;42.650;23.386;2024-02-15T03:15:12;12.97;;;8.03;;
18789;SDS011;9523;42.650;23.386;2024-02-15T03:17:45;10.83;;;7.40;;
18789;SDS011;9523;42.650;23.386;2024-02-15T03:20:13;12.47;;;7.53;;
18789;SDS011;9523;42.650;23.386;2024-02-15T03:22:50;11.07;;;6.67;;
18789;SDS011;9523;42.650;23.386;2024-02-15T03:25:18;12.13;;;7.10;;
18789;SDS011;9523;42.650;23.386;2024-02-15T03:27:45;12.03;;;7.90;;
18789;SDS011;9523;42.650;23.386;2024-02-15T03:30:12;10.27;;;6.53;;
18789;SDS011;9523;42.650;23.386;2024-02-15T03:32:39;11.63;;;7.47;;
18789;SDS011;9523;42.650;23.386;2024-02-15T03:35:08;14.27;;;7.93;;
18789;SDS011;9523;42.650;23.386;2024-02-15T03:37:39;12.53;;;7.67;;
18789;SDS011;9523;42.650;23.386;2024-02-15T03:40:07;14.00;;;8.47;;
18789;SDS011;9523;42.650;23.386;2024-02-15T03:42:34;13.23;;;7.53;;
18789;SDS011;9523;42.650;23.386;2024-02-15T03:45:02;14.53;;;8.23;;
18789;SDS011;9523;42.650;23.386;2024-02-15T03:47:31;11.97;;;8.00;;
18789;SDS011;9523;42.650;23.386;2024-02-15T03:49:58;10.17;;;5.53;;
18789;SDS011;9523;42.650;23.386;2024-02-15T03:52:27;10.30;;;6.60;;
18789;SDS011;9523;42.650;23.386;2024-02-15T03:54:55;10.03;;;6.73;;
18789;SDS011;9523;42.650;23.386;2024-02-15T03:57:22;12.37;;;7.87;;
18789;SDS011;9523;42.650;23.386;2024-02-15T03:59:49;12.33;;;7.90;;
18789;SDS011;9523;42.650;23.386;2024-02-15T04:02:17;13.07;;;7.67;;
18789;SDS011;9523;42.650;23.386;2024-02-15T04:04:44;12.80;;;8.63;;
18789;SDS011;9523;42.650;23.386;2024-02-15T04:07:12;12.37;;;6.90;;
18789;SDS011;9523;42.650;23.386;2024-02-15T04:09:42;12.70;;;7.63;;
18789;SDS011;9523;42.650;23.386;2024-02-15T04:12:10;7.20;;;4.93;;
18789;SDS011;9523;42.650;23.386;2024-02-15T04:14:37;11.80;;;7.13;;
18789;SDS011;9523;42.650;23.386;2024-02-15T04:17:04;12.87;;;6.77;;
18789;SDS011;9523;42.650;23.386;2024-02-15T04:19:31;11.70;;;7.67;;
18789;SDS011;9523;42.650;23.386;2024-02-15T04:21:59;13.80;;;7.70;;
18789;SDS011;9523;42.650;23.386;2024-02-15T04:24:29;9.03;;;5.77;;
18789;SDS011;9523;42.650;23.386;2024-02-15T04:26:58;15.17;;;8.10;;
18789;SDS011;9523;42.650;23.386;2024-02-15T04:29:25;16.43;;;7.57;;
18789;SDS011;9523;42.650;23.386;2024-02-15T04:31:52;13.40;;;7.87;;
18789;SDS011;9523;42.650;23.386;2024-02-15T04:34:20;13.90;;;7.73;;
18789;SDS011;9523;42.650;23.386;2024-02-15T04:36:47;14.63;;;8.77;;
18789;SDS011;9523;42.650;23.386;2024-02-15T04:39:16;10.60;;;6.03;;
18789;SDS011;9523;42.650;23.386;2024-02-15T04:41:49;11.37;;;8.07;;
18789;SDS011;9523;42.650;23.386;2024-02-15T04:44:18;11.73;;;7.20;;
18789;SDS011;9523;42.650;23.386;2024-02-15T04:46:46;9.40;;;5.10;;
18789;SDS011;9523;42.650;23.386;2024-02-15T04:49:14;13.07;;;7.57;;
18789;SDS011;9523;42.650;23.386;2024-02-15T04:51:41;10.77;;;7.17;;
18789;SDS011;9523;42.650;23.386;2024-02-15T04:54:09;12.90;;;7.63;;
18789;SDS011;9523;42.650;23.386;2024-02-15T04:56:38;12.83;;;7.90;;
18789;SDS011;9523;42.650;23.386;2024-02-15T04:59:05;11.47;;;7.27;;
18789;SDS011;9523;42.650;23.386;2024-02-15T05:01:35;12.67;;;7.40;;
18789;SDS011;9523;42.650;23.386;2024-02-15T05:04:02;12.97;;;7.27;;
18789;SDS011;9523;42.650;23.386;2024-02-15T05:06:32;13.27;;;7.07;;
18789;SDS011;9523;42.650;23.386;2024-02-15T05:08:59;11.73;;;5.20;;
18789;SDS011;9523;42.650;23.386;2024-02-15T05:11:26;11.70;;;7.33;;
18789;SDS011;9523;42.650;23.386;2024-02-15T05:13:54;13.07;;;6.37;;
18789;SDS011;9523;42.650;23.386;2024-02-15T05:16:21;11.30;;;5.77;;
18789;SDS011;9523;42.650;23.386;2024-02-15T05:18:49;13.80;;;7.17;;
18789;SDS011;9523;42.650;23.386;2024-02-15T05:21:16;12.07;;;8.03;;
18789;SDS011;9523;42.650;23.386;2024-02-15T05:23:43;17.73;;;7.30;;
18789;SDS011;9523;42.650;23.386;2024-02-15T05:26:11;13.00;;;7.97;;
18789;SDS011;9523;42.650;23.386;2024-02-15T05:28:41;12.23;;;7.40;;
18789;SDS011;9523;42.650;23.386;2024-02-15T05:31:09;12.40;;;7.73;;
18789;SDS011;9523;42.650;23.386;2024-02-15T05:33:42;13.63;;;7.63;;
18789;SDS011;9523;42.650;23.386;2024-02-15T05:36:11;14.33;;;7.83;;
18789;SDS011;9523;42.650;23.386;2024-02-15T05:38:38;14.07;;;7.73;;
18789;SDS011;9523;42.650;23.386;2024-02-15T05:41:06;18.47;;;7.93;;
18789;SDS011;9523;42.650;23.386;2024-02-15T05:43:33;13.40;;;9.33;;
18789;SDS011;9523;42.650;23.386;2024-02-15T05:46:02;14.37;;;7.50;;
18789;SDS011;9523;42.650;23.386;2024-02-15T05:48:29;9.10;;;5.50;;
18789;SDS011;9523;42.650;23.386;2024-02-15T05:50:56;16.83;;;6.47;;
18789;SDS011;9523;42.650;23.386;2024-02-15T05:53:26;12.80;;;8.10;;
18789;SDS011;9523;42.650;23.386;2024-02-15T05:55:54;13.17;;;7.70;;
18789;SDS011;9523;42.650;23.386;2024-02-15T05:58:23;15.93;;;8.30;;
18789;SDS011;9523;42.650;23.386;2024-02-15T06:00:50;15.73;;;7.70;;
18789;SDS011;9523;42.650;23.386;2024-02-15T06:03:18;10.67;;;6.00;;
18789;SDS011;9523;42.650;23.386;2024-02-15T06:05:47;12.90;;;7.00;;
18789;SDS011;9523;42.650;23.386;2024-02-15T06:08:14;11.50;;;6.63;;
18789;SDS011;9523;42.650;23.386;2024-02-15T06:10:42;15.97;;;8.37;;
18789;SDS011;9523;42.650;23.386;2024-02-15T06:13:09;14.83;;;8.80;;
18789;SDS011;9523;42.650;23.386;2024-02-15T06:15:36;11.87;;;6.33;;
18789;SDS011;9523;42.650;23.386;2024-02-15T06:18:03;13.43;;;8.53;;
18789;SDS011;9523;42.650;23.386;2024-02-15T06:20:34;13.63;;;7.03;;
18789;SDS011;9523;42.650;23.386;2024-02-15T06:23:01;16.23;;;7.40;;
18789;SDS011;9523;42.650;23.386;2024-02-15T06:25:31;14.53;;;7.23;;
18789;SDS011;9523;42.650;23.386;2024-02-15T06:28:00;20.20;;;7.67;;
18789;SDS011;9523;42.650;23.386;2024-02-15T06:30:38;15.60;;;7.33;;
18789;SDS011;9523;42.650;23.386;2024-02-15T06:33:35;13.80;;;7.80;;
18789;SDS011;9523;42.650;23.386;2024-02-15T06:36:19;13.23;;;7.27;;
18789;SDS011;9523;42.650;23.386;2024-02-15T06:39:04;15.97;;;8.00;;
18789;SDS011;9523;42.650;23.386;2024-02-15T06:41:48;16.33;;;8.63;;
18789;SDS011;9523;42.650;23.386;2024-02-15T06:44:17;15.73;;;7.47;;
18789;SDS011;9523;42.650;23.386;2024-02-15T06:46:44;21.40;;;8.33;;
18789;SDS011;9523;42.650;23.386;2024-02-15T06:49:11;14.87;;;8.03;;
18789;SDS011;9523;42.650;23.386;2024-02-15T06:51:38;16.13;;;8.13;;
18789;SDS011;9523;42.650;23.386;2024-02-15T06:54:05;14.13;;;7.70;;
18789;SDS011;9523;42.650;23.386;2024-02-15T06:56:35;16.70;;;8.80;;
18789;SDS011;9523;42.650;23.386;2024-02-15T06:59:02;12.37;;;6.73;;
18789;SDS011;9523;42.650;23.386;2024-02-15T07:01:31;11.03;;;6.53;;
18789;SDS011;9523;42.650;23.386;2024-02-15T07:03:59;11.70;;;7.27;;
18789;SDS011;9523;42.650;23.386;2024-02-15T07:06:28;14.17;;;8.70;;
18789;SDS011;9523;42.650;23.386;2024-02-15T07:08:56;12.77;;;7.70;;
18789;SDS011;9523;42.650;23.386;2024-02-15T07:11:23;16.73;;;8.53;;
18789;SDS011;9523;42.650;23.386;2024-02-15T07:13:50;12.53;;;6.97;;
18789;SDS011;9523;42.650;23.386;2024-02-15T07:16:19;14.73;;;8.17;;
18789;SDS011;9523;42.650;23.386;2024-02-15T07:18:48;15.43;;;7.93;;
18789;SDS011;9523;42.650;23.386;2024-02-15T07:21:15;12.40;;;8.13;;
18789;SDS011;9523;42.650;23.386;2024-02-15T07:23:46;15.83;;;7.63;;
18789;SDS011;9523;42.650;23.386;2024-02-15T07:26:13;13.87;;;8.40;;
18789;SDS011;9523;42.650;23.386;2024-02-15T07:28:40;11.77;;;6.27;;
18789;SDS011;9523;42.650;23.386;2024-02-15T07:31:07;12.23;;;7.50;;
18789;SDS011;9523;42.650;23.386;2024-02-15T07:33:34;12.57;;;7.90;;
18789;SDS011;9523;42.650;23.386;2024-02-15T07:36:04;12.93;;;8.43;;
18789;SDS011;9523;42.650;23.386;2024-02-15T07:38:31;12.00;;;6.40;;
18789;SDS011;9523;42.650;23.386;2024-02-15T07:40:59;12.07;;;7.50;;
18789;SDS011;9523;42.650;23.386;2024-02-15T07:43:26;17.07;;;8.70;;
18789;SDS011;9523;42.650;23.386;2024-02-15T07:45:54;11.77;;;7.13;;
18789;SDS011;9523;42.650;23.386;2024-02-15T07:48:21;13.33;;;7.57;;
18789;SDS011;9523;42.650;23.386;2024-02-15T07:50:48;13.20;;;8.40;;
18789;SDS011;9523;42.650;23.386;2024-02-15T07:53:16;14.90;;;8.37;;
18789;SDS011;9523;42.650;23.386;2024-02-15T07:55:43;15.47;;;8.77;;
18789;SDS011;9523;42.650;23.386;2024-02-15T07:58:10;13.00;;;7.93;;
18789;SDS011;9523;42.650;23.386;2024-02-15T08:00:37;12.43;;;7.13;;
18789;SDS011;9523;42.650;23.386;2024-02-15T08:03:05;13.60;;;8.10;;
18789;SDS011;9523;42.650;23.386;2024-02-15T08:05:32;15.40;;;8.33;;
18789;SDS011;9523;42.650;23.386;2024-02-15T08:08:00;12.70;;;6.33;;
18789;SDS011;9523;42.650;23.386;2024-02-15T08:10:30;14.67;;;7.03;;
18789;SDS011;9523;42.650;23.386;2024-02-15T08:12:59;14.40;;;7.80;;
18789;SDS011;9523;42.650;23.386;2024-02-15T08:15:26;14.70;;;8.03;;
18789;SDS011;9523;42.650;23.386;2024-02-15T08:17:53;12.77;;;8.57;;
18789;SDS011;9523;42.650;23.386;2024-02-15T08:20:21;13.17;;;6.60;;
18789;SDS011;9523;42.650;23.386;2024-02-15T08:22:48;15.40;;;8.03;;
18789;SDS011;9523;42.650;23.386;2024-02-15T08:25:15;14.10;;;6.63;;
18789;SDS011;9523;42.650;23.386;2024-02-15T08:27:46;15.97;;;7.97;;
18789;SDS011;9523;42.650;23.386;2024-02-15T08:30:15;15.47;;;7.67;;
18789;SDS011;9523;42.650;23.386;2024-02-15T08:32:43;10.80;;;7.23;;
18789;SDS011;9523;42.650;23.386;2024-02-15T08:35:10;16.17;;;7.70;;
18789;SDS011;9523;42.650;23.386;2024-02-15T08:37:38;14.87;;;7.30;;
18789;SDS011;9523;42.650;23.386;2024-02-15T08:40:07;13.90;;;7.70;;
18789;SDS011;9523;42.650;23.386;2024-02-15T08:42:37;12.17;;;6.90;;
18789;SDS011;9523;42.650;23.386;2024-02-15T08:45:07;12.80;;;7.10;;
18789;SDS011;9523;42.650;23.386;2024-02-15T08:47:36;12.27;;;7.50;;
18789;SDS011;9523;42.650;23.386;2024-02-15T08:50:04;13.63;;;7.63;;
18789;SDS011;9523;42.650;23.386;2024-02-15T08:52:33;12.23;;;7.40;;
18789;SDS011;9523;42.650;23.386;2024-02-15T08:55:03;9.30;;;5.63;;
18789;SDS011;9523;42.650;23.386;2024-02-15T08:57:32;12.30;;;7.53;;
18789;SDS011;9523;42.650;23.386;2024-02-15T08:59:59;13.97;;;6.53;;
18789;SDS011;9523;42.650;23.386;2024-02-15T09:02:30;13.23;;;7.80;;
18789;SDS011;9523;42.650;23.386;2024-02-15T09:04:58;9.23;;;6.77;;
18789;SDS011;9523;42.650;23.386;2024-02-15T09:07:25;12.63;;;7.83;;
18789;SDS011;9523;42.650;23.386;2024-02-15T09:09:52;12.43;;;6.67;;
18789;SDS011;9523;42.650;23.386;2024-02-15T09:12:20;8.27;;;5.03;;
18789;SDS011;9523;42.650;23.386;2024-02-15T09:14:47;11.40;;;6.70;;
18789;SDS011;9523;42.650;23.386;2024-02-15T09:17:14;10.43;;;6.43;;
18789;SDS011;9523;42.650;23.386;2024-02-15T09:19:52;10.77;;;6.83;;
18789;SDS011;9523;42.650;23.386;2024-02-15T09:22:19;10.77;;;7.10;;
18789;SDS011;9523;42.650;23.386;2024-02-15T09:24:46;12.80;;;7.37;;
18789;SDS011;9523;42.650;23.386;2024-02-15T09:27:13;11.73;;;7.57;;
18789;SDS011;9523;42.650;23.386;2024-02-15T09:29:40;13.23;;;7.87;;
18789;SDS011;9523;42.650;23.386;2024-02-15T09:32:07;14.97;;;6.93;;
18789;SDS011;9523;42.650;23.386;2024-02-15T09:34:34;11.37;;;7.60;;
18789;SDS011;9523;42.650;23.386;2024-02-15T09:37:03;10.67;;;7.17;;
18789;SDS011;9523;42.650;23.386;2024-02-15T09:39:30;10.63;;;7.10;;
18789;SDS011;9523;42.650;23.386;2024-02-15T09:41:57;12.43;;;7.60;;
18789;SDS011;9523;42.650;23.386;2024-02-15T09:44:24;11.63;;;8.07;;
18789;SDS011;9523;42.650;23.386;2024-02-15T09:46:55;14.13;;;7.60;;
18789;SDS011;9523;42.650;23.386;2024-02-15T09:49:32;10.27;;;6.87;;
18789;SDS011;9523;42.650;23.386;2024-02-15T09:52:03;9.37;;;5.73;;
18789;SDS011;9523;42.650;23.386;2024-02-15T09:54:37;12.47;;;7.33;;
18789;SDS011;9523;42.650;23.386;2024-02-15T09:57:08;11.20;;;7.07;;
18789;SDS011;9523;42.650;23.386;2024-02-15T09:59:36;9.57;;;6.70;;
18789;SDS011;9523;42.650;23.386;2024-02-15T10:02:04;11.00;;;6.67;;
18789;SDS011;9523;42.650;23.386;2024-02-15T10:04:35;11.10;;;6.67;;
18789;SDS011;9523;42.650;23.386;2024-02-15T10:07:05;7.10;;;5.60;;
18789;SDS011;9523;42.650;23.386;2024-02-15T10:09:34;8.33;;;6.17;;
18789;SDS011;9523;42.650;23.386;2024-02-15T10:12:02;9.23;;;6.43;;
18789;SDS011;9523;42.650;23.386;2024-02-15T10:14:32;8.90;;;5.70;;
18789;SDS011;9523;42.650;23.386;2024-02-15T10:17:05;9.53;;;6.67;;
18789;SDS011;9523;42.650;23.386;2024-02-15T10:19:36;10.17;;;6.33;;
18789;SDS011;9523;42.650;23.386;2024-02-15T10:22:09;12.17;;;6.77;;
18789;SDS011;9523;42.650;23.386;2024-02-15T10:24:38;7.97;;;5.60;;
18789;SDS011;9523;42.650;23.386;2024-02-15T10:27:05;10.13;;;6.10;;
18789;SDS011;9523;42.650;23.386;2024-02-15T10:29:36;11.57;;;6.97;;
18789;SDS011;9523;42.650;23.386;2024-02-15T10:32:05;7.53;;;5.83;;
18789;SDS011;9523;42.650;23.386;2024-02-15T10:34:36;9.47;;;6.07;;
18789;SDS011;9523;42.650;23.386;2024-02-15T10:37:12;9.00;;;5.67;;
18789;SDS011;9523;42.650;23.386;2024-02-15T10:39:42;14.27;;;5.93;;
18789;SDS011;9523;42.650;23.386;2024-02-15T10:42:09;10.13;;;6.43;;
18789;SDS011;9523;42.650;23.386;2024-02-15T10:44:37;8.67;;;6.23;;
18789;SDS011;9523;42.650;23.386;2024-02-15T10:47:06;10.20;;;6.27;;
18789;SDS011;9523;42.650;23.386;2024-02-15T10:49:34;11.00;;;6.03;;
18789;SDS011;9523;42.650;23.386;2024-02-15T10:52:02;7.70;;;5.97;;
18789;SDS011;9523;42.650;23.386;2024-02-15T10:54:43;8.50;;;5.83;;
18789;SDS011;9523;42.650;23.386;2024-02-15T10:57:14;7.60;;;5.33;;
18789;SDS011;9523;42.650;23.386;2024-02-15T10:59:49;9.60;;;6.03;;
18789;SDS011;9523;42.650;23.386;2024-02-15T11:02:28;10.00;;;5.90;;
18789;SDS011;9523;42.650;23.386;2024-02-15T11:04:59;8.53;;;5.80;;
18789;SDS011;9523;42.650;23.386;2024-02-15T11:07:29;8.43;;;5.57;;
18789;SDS011;9523;42.650;23.386;2024-02-15T11:09:59;8.87;;;6.00;;
18789;SDS011;9523;42.650;23.386;2024-02-15T11:12:30;9.53;;;6.07;;
18789;SDS011;9523;42.650;23.386;2024-02-15T11:14:57;14.90;;;6.23;;
18789;SDS011;9523;42.650;23.386;2024-02-15T11:23:23;6.87;;;5.23;;
18789;SDS011;9523;42.650;23.386;2024-02-15T11:25:53;9.47;;;5.90;;
18789;SDS011;9523;42.650;23.386;2024-02-15T11:28:36;7.37;;;5.20;;
18789;SDS011;9523;42.650;23.386;2024-02-15T11:31:08;10.00;;;5.97;;
18789;SDS011;9523;42.650;23.386;2024-02-15T11:33:37;9.10;;;6.20;;
18789;SDS011;9523;42.650;23.386;2024-02-15T11:36:05;8.80;;;5.83;;
18789;SDS011;9523;42.650;23.386;2024-02-15T11:38:33;10.73;;;5.60;;
18789;SDS011;9523;42.650;23.386;2024-02-15T11:41:03;8.07;;;5.50;;
18789;SDS011;9523;42.650;23.386;2024-02-15T11:43:50;8.97;;;5.20;;
18789;SDS011;9523;42.650;23.386;2024-02-15T11:46:24;9.27;;;5.77;;
18789;SDS011;9523;42.650;23.386;2024-02-15T11:48:52;9.17;;;6.00;;
18789;SDS011;9523;42.650;23.386;2024-02-15T11:51:27;7.77;;;6.00;;
18789;SDS011;9523;42.650;23.386;2024-02-15T11:54:01;8.60;;;5.70;;
18789;SDS011;9523;42.650;23.386;2024-02-15T11:56:34;8.97;;;5.53;;
18789;SDS011;9523;42.650;23.386;2024-02-15T11:59:17;11.40;;;5.77;;
18789;SDS011;9523;42.650;23.386;2024-02-15T12:01:54;8.03;;;5.07;;
18789;SDS011;9523;42.650;23.386;2024-02-15T12:04:39;7.47;;;5.30;;
18789;SDS011;9523;42.650;23.386;2024-02-15T12:07:24;10.30;;;5.47;;
18789;SDS011;9523;42.650;23.386;2024-02-15T12:10:14;8.57;;;5.57;;
18789;SDS011;9523;42.650;23.386;2024-02-15T12:13:01;10.27;;;4.83;;
18789;SDS011;9523;42.650;23.386;2024-02-15T12:15:56;7.43;;;4.70;;
18789;SDS011;9523;42.650;23.386;2024-02-15T12:18:41;8.27;;;5.40;;
18789;SDS011;9523;42.650;23.386;2024-02-15T12:21:09;7.57;;;5.17;;
18789;SDS011;9523;42.650;23.386;2024-02-15T12:23:40;8.30;;;5.07;;
18789;SDS011;9523;42.650;23.386;2024-02-15T12:26:07;8.93;;;5.80;;
18789;SDS011;9523;42.650;23.386;2024-02-15T12:28:36;6.13;;;5.50;;
18789;SDS011;9523;42.650;23.386;2024-02-15T12:31:04;7.77;;;5.27;;
18789;SDS011;9523;42.650;23.386;2024-02-15T12:33:33;7.03;;;5.33;;
18789;SDS011;9523;42.650;23.386;2024-02-15T12:36:06;6.53;;;5.20;;
18789;SDS011;9523;42.650;23.386;2024-02-15T12:38:34;9.97;;;5.43;;
18789;SDS011;9523;42.650;23.386;2024-02-15T12:41:03;7.63;;;5.30;;
18789;SDS011;9523;42.650;23.386;2024-02-15T12:43:30;10.50;;;5.17;;
18789;SDS011;9523;42.650;23.386;2024-02-15T12:45:59;7.90;;;5.27;;
18789;SDS011;9523;42.650;23.386;2024-02-15T12:48:26;7.40;;;5.20;;
18789;SDS011;9523;42.650;23.386;2024-02-15T12:50:53;10.00;;;4.47;;
18789;SDS011;9523;42.650;23.386;2024-02-15T12:53:21;7.50;;;4.93;;
18789;SDS011;9523;42.650;23.386;2024-02-15T12:55:54;7.77;;;4.50;;
18789;SDS011;9523;42.650;23.386;2024-02-15T12:58:22;9.47;;;5.10;;
18789;SDS011;9523;42.650;23.386;2024-02-15T13:00:54;7.47;;;4.77;;
18789;SDS011;9523;42.650;23.386;2024-02-15T13:03:25;8.00;;;5.10;;
18789;SDS011;9523;42.650;23.386;2024-02-15T13:05:52;8.10;;;5.13;;
18789;SDS011;9523;42.650;23.386;2024-02-15T13:08:19;10.90;;;5.13;;
18789;SDS011;9523;42.650;23.386;2024-02-15T13:10:46;6.53;;;5.00;;
18789;SDS011;9523;42.650;23.386;2024-02-15T13:13:15;6.53;;;4.70;;
18789;SDS011;9523;42.650;23.386;2024-02-15T13:15:42;5.40;;;4.50;;
18789;SDS011;9523;42.650;23.386;2024-02-15T13:18:09;7.33;;;4.27;;
18789;SDS011;9523;42.650;23.386;2024-02-15T13:20:40;6.60;;;4.70;;
18789;SDS011;9523;42.650;23.386;2024-02-15T13:23:08;6.10;;;4.33;;
18789;SDS011;9523;42.650;23.386;2024-02-15T13:25:41;6.27;;;4.10;;
18789;SDS011;9523;42.650;23.386;2024-02-15T13:28:08;7.30;;;4.70;;
18789;SDS011;9523;42.650;23.386;2024-02-15T13:30:38;4.50;;;3.90;;
18789;SDS011;9523;42.650;23.386;2024-02-15T13:33:06;7.80;;;4.73;;
18789;SDS011;9523;42.650;23.386;2024-02-15T13:35:33;7.60;;;4.90;;
18789;SDS011;9523;42.650;23.386;2024-02-15T13:38:03;6.30;;;5.23;;
18789;SDS011;9523;42.650;23.386;2024-02-15T13:40:30;7.47;;;5.20;;
18789;SDS011;9523;42.650;23.386;2024-02-15T13:42:57;6.80;;;4.87;;
18789;SDS011;9523;42.650;23.386;2024-02-15T13:45:27;6.13;;;5.13;;
18789;SDS011;9523;42.650;23.386;2024-02-15T13:47:58;7.47;;;5.07;;
18789;SDS011;9523;42.650;23.386;2024-02-15T13:50:27;7.17;;;5.10;;
18789;SDS011;9523;42.650;23.386;2024-02-15T13:52:55;7.97;;;4.73;;
18789;SDS011;9523;42.650;23.386;2024-02-15T13:55:24;6.83;;;5.00;;
18789;SDS011;9523;42.650;23.386;2024-02-15T13:57:52;6.97;;;5.03;;
18789;SDS011;9523;42.650;23.386;2024-02-15T14:00:21;9.23;;;4.53;;
18789;SDS011;9523;42.650;23.386;2024-02-15T14:02:48;5.50;;;4.77;;
18789;SDS011;9523;42.650;23.386;2024-02-15T14:05:19;7.43;;;5.17;;
18789;SDS011;9523;42.650;23.386;2024-02-15T14:07:50;8.50;;;4.90;;
18789;SDS011;9523;42.650;23.386;2024-02-15T14:10:19;6.47;;;4.40;;
18789;SDS011;9523;42.650;23.386;2024-02-15T14:12:47;6.63;;;4.47;;
18789;SDS011;9523;42.650;23.386;2024-02-15T14:15:15;6.43;;;3.80;;
18789;SDS011;9523;42.650;23.386;2024-02-15T14:17:43;7.20;;;4.70;;
18789;SDS011;9523;42.650;23.386;2024-02-15T14:20:11;8.10;;;4.63;;
18789;SDS011;9523;42.650;23.386;2024-02-15T14:22:39;7.37;;;5.20;;
18789;SDS011;9523;42.650;23.386;2024-02-15T14:25:06;6.67;;;4.50;;
18789;SDS011;9523;42.650;23.386;2024-02-15T14:27:34;8.10;;;4.73;;
18789;SDS011;9523;42.650;23.386;2024-02-15T14:30:04;9.10;;;4.70;;
18789;SDS011;9523;42.650;23.386;2024-02-15T14:32:49;7.60;;;4.33;;
18789;SDS011;9523;42.650;23.386;2024-02-15T14:35:29;6.13;;;4.30;;
18789;SDS011;9523;42.650;23.386;2024-02-15T14:38:00;5.40;;;4.17;;
18789;SDS011;9523;42.650;23.386;2024-02-15T14:40:28;5.30;;;4.57;;
18789;SDS011;9523;42.650;23.386;2024-02-15T14:42:55;10.03;;;4.87;;
18789;SDS011;9523;42.650;23.386;2024-02-15T14:45:24;5.93;;;4.80;;
18789;SDS011;9523;42.650;23.386;2024-02-15T14:47:51;8.43;;;5.17;;
18789;SDS011;9523;42.650;23.386;2024-02-15T14:50:18;7.07;;;4.47;;
18789;SDS011;9523;42.650;23.386;2024-02-15T14:52:46;5.73;;;4.47;;
18789;SDS011;9523;42.650;23.386;2024-02-15T14:55:14;7.50;;;4.53;;
18789;SDS011;9523;42.650;23.386;2024-02-15T14:57:42;9.83;;;5.27;;